Terminal Aerodrome Forecast
Issued by NWS

Home | Current Version | Previous Version | Graphics & Text | Print | Product List | Glossary On
Versions: 1 2 3 4 5 6 7 8 9 10 11 12 13 14 15 16 17 18 19 20 21 22 23 24 25
000
FTUS43 KABR 070330 AAC
TAFMBG
TAF AMD
KMBG 070330Z 0704/0724 VRB04KT P6SM -SHRA OVC080
     FM070800 29014KT 5SM BR OVC015
     FM071200 32016KT P6SM OVC015
     FM072100 32015KT P6SM OVC035=

USA.gov is the U.S. government's official web portal to all federal, state and local government web resources and services.